Time;durP1;ratioP1;P1;durP2;ratioP2;P2;SDS_P1;SDS_P2;PMS_P1;PMS_P2;Temp;Humidity;BMP_temperature;BMP_pressure;BME280_temperature;BME280_humidity;BME280_pressure;Samples;Min_cycle;Max_cycle;Signal;HPM_P1;HPM_P2
2021/08/10 00:02:08;;;;;;;8.50;3.83;;;14.00;99.90;;;;;;5046941;28;20030;-78
2021/08/10 00:04:34;;;;;;;4.57;3.05;;;13.90;99.90;;;;;;5046602;28;20117;-78
2021/08/10 00:06:59;;;;;;;4.72;2.88;;;14.00;99.90;;;;;;5047942;28;20029;-78
2021/08/10 00:09:25;;;;;;;8.18;3.35;;;13.90;99.90;;;;;;5056286;28;20029;-77
2021/08/10 00:11:51;;;;;;;6.97;3.00;;;13.90;99.90;;;;;;5048921;28;20030;-77
2021/08/10 00:14:16;;;;;;;9.00;3.72;;;13.80;99.90;;;;;;5066699;28;20037;-77
2021/08/10 00:16:42;;;;;;;4.80;3.22;;;14.00;99.90;;;;;;5067691;28;20041;-76
2021/08/10 00:19:08;;;;;;;15.88;4.15;;;13.90;99.90;;;;;;5063060;28;20033;-77
2021/08/10 00:21:35;;;;;;;8.25;3.53;;;13.80;99.90;;;;;;5046626;28;20029;-76
2021/08/10 00:24:00;;;;;;;6.13;3.20;;;13.80;99.90;;;;;;5062942;28;20032;-76
2021/08/10 00:26:26;;;;;;;6.63;2.95;;;13.80;99.90;;;;;;5046486;28;20049;-77
2021/08/10 00:28:52;;;;;;;6.05;2.80;;;13.80;99.90;;;;;;5047885;28;20025;-76
2021/08/10 00:31:17;;;;;;;5.63;2.60;;;13.80;99.90;;;;;;5047769;28;20021;-77
2021/08/10 00:33:43;;;;;;;3.28;1.95;;;13.70;99.90;;;;;;5047620;28;20045;-76
2021/08/10 00:36:12;;;;;;;6.72;2.53;;;13.70;99.90;;;;;;5047571;28;20053;-77
2021/08/10 00:38:38;;;;;;;4.03;2.42;;;13.60;99.90;;;;;;5047483;28;20028;-77
2021/08/10 00:41:04;;;;;;;4.13;2.22;;;13.60;99.90;;;;;;5062729;28;20021;-77
2021/08/10 00:43:34;;;;;;;3.72;2.33;;;13.40;99.90;;;;;;5047419;28;20056;-77
2021/08/10 00:46:03;;;;;;;4.53;2.63;;;13.50;99.90;;;;;;5062754;28;20049;-77
2021/08/10 00:48:29;;;;;;;4.85;2.50;;;13.50;99.90;;;;;;5047371;28;20026;-78
2021/08/10 00:50:55;;;;;;;4.82;2.55;;;13.40;99.90;;;;;;5047422;28;20509;-77
2021/08/10 00:53:21;;;;;;;3.05;1.95;;;13.40;99.90;;;;;;5062659;28;20231;-77
2021/08/10 00:55:47;;;;;;;4.80;2.67;;;13.40;99.90;;;;;;5062601;28;20087;-77
2021/08/10 00:58:14;;;;;;;3.55;2.08;;;13.40;99.90;;;;;;5065988;28;20067;-78
2021/08/10 01:00:40;;;;;;;3.72;2.20;;;13.40;99.90;;;;;;5067224;28;20048;-76
2021/08/10 01:03:06;;;;;;;6.22;2.50;;;13.40;99.90;;;;;;5065510;28;20117;-76
2021/08/10 01:05:32;;;;;;;8.70;2.72;;;13.40;99.90;;;;;;5066086;28;20025;-76
2021/08/10 01:08:13;;;;;;;9.75;2.58;;;13.40;99.90;;;;;;5066828;28;20139;-76
2021/08/10 01:10:57;;;;;;;6.03;3.05;;;13.40;99.90;;;;;;5067122;28;20025;-77
2021/08/10 01:13:38;;;;;;;5.30;2.63;;;13.50;99.90;;;;;;5065496;28;20048;-78
2021/08/10 01:16:22;;;;;;;5.38;3.22;;;13.50;99.90;;;;;;5065340;28;20059;-77
2021/08/10 01:18:56;;;;;;;11.05;3.13;;;13.50;99.90;;;;;;5067215;28;20055;-76
2021/08/10 01:21:34;;;;;;;4.70;2.67;;;13.40;99.90;;;;;;5066720;28;20092;-75
2021/08/10 01:24:26;;;;;;;4.45;2.75;;;13.40;99.90;;;;;;5066722;28;20493;-76
2021/08/10 01:27:24;;;;;;;9.93;2.78;;;13.40;99.90;;;;;;5066512;28;20036;-77
2021/08/10 01:30:07;;;;;;;3.47;2.42;;;13.40;99.90;;;;;;5066689;28;20064;-77
2021/08/10 01:32:36;;;;;;;3.30;1.85;;;13.40;99.90;;;;;;5064995;28;20032;-76
2021/08/10 01:35:02;;;;;;;6.25;2.97;;;13.50;99.90;;;;;;5081815;28;20036;-75
2021/08/10 01:37:30;;;;;;;7.30;2.78;;;13.40;99.90;;;;;;5064977;28;20021;-76
2021/08/10 01:40:00;;;;;;;5.15;2.95;;;13.50;99.90;;;;;;5066447;28;20065;-76
2021/08/10 01:42:26;;;;;;;3.95;2.70;;;13.40;99.90;;;;;;5066504;28;20037;-76
2021/08/10 01:44:53;;;;;;;11.43;2.67;;;13.40;99.90;;;;;;5065004;28;20049;-76
2021/08/10 01:47:20;;;;;;;6.82;2.75;;;13.40;99.90;;;;;;5066395;28;20021;-77
2021/08/10 01:49:47;;;;;;;3.80;2.72;;;13.40;99.90;;;;;;5066398;28;20017;-78
2021/08/10 01:52:17;;;;;;;6.55;2.80;;;13.40;99.90;;;;;;5065084;28;20104;-76
2021/08/10 01:54:44;;;;;;;5.13;2.50;;;13.40;99.90;;;;;;5066085;28;20021;-76
2021/08/10 01:57:11;;;;;;;7.78;3.20;;;13.30;99.90;;;;;;5057513;28;20021;-77
2021/08/10 01:59:38;;;;;;;4.03;2.70;;;13.40;99.90;;;;;;5045890;28;20025;-77
2021/08/10 02:02:06;;;;;;;4.32;2.42;;;13.50;99.90;;;;;;5044560;28;20018;-76
2021/08/10 02:04:32;;;;;;;8.95;2.90;;;13.50;99.90;;;;;;5044491;28;20036;-76
2021/08/10 02:06:58;;;;;;;5.03;2.92;;;13.50;99.90;;;;;;5044547;28;20022;-76
2021/08/10 02:09:24;;;;;;;4.00;2.92;;;13.50;99.90;;;;;;5043860;28;20108;-75
2021/08/10 02:11:52;;;;;;;5.03;2.60;;;13.50;99.90;;;;;;5045516;28;20032;-76
2021/08/10 02:14:23;;;;;;;5.30;3.25;;;13.60;99.90;;;;;;5045837;28;20033;-77
2021/08/10 02:16:50;;;;;;;8.70;3.13;;;13.60;99.90;;;;;;5045606;28;20045;-77
2021/08/10 02:19:18;;;;;;;5.45;3.25;;;13.60;99.90;;;;;;5043201;28;20029;-77
2021/08/10 02:21:49;;;;;;;10.00;3.45;;;13.60;99.90;;;;;;5043596;28;20033;-77
2021/08/10 02:24:53;;;;;;;11.07;4.05;;;13.60;99.90;;;;;;5043087;28;20450;-78
2021/08/10 02:27:34;;;;;;;6.78;3.42;;;13.60;99.90;;;;;;5035686;28;20045;-76
2021/08/10 02:30:07;;;;;;;7.97;3.78;;;13.60;99.90;;;;;;5044108;28;20033;-78
2021/08/10 02:32:34;;;;;;;8.52;4.10;;;13.70;99.90;;;;;;5044205;28;20112;-77
2021/08/10 02:35:01;;;;;;;11.30;4.38;;;13.70;99.90;;;;;;5043988;28;20037;-77
2021/08/10 02:37:28;;;;;;;7.88;3.92;;;13.60;99.90;;;;;;5043997;28;20097;-77
2021/08/10 02:39:58;;;;;;;6.03;3.50;;;13.60;99.90;;;;;;5045262;28;20052;-76
2021/08/10 02:42:25;;;;;;;11.65;4.57;;;13.60;99.90;;;;;;5045278;28;20045;-76
2021/08/10 02:44:51;;;;;;;6.10;3.35;;;13.60;99.90;;;;;;5043928;28;20052;-77
2021/08/10 02:47:18;;;;;;;5.93;3.45;;;13.60;99.90;;;;;;5045410;28;20033;-76
2021/08/10 02:49:44;;;;;;;6.32;3.22;;;13.60;99.90;;;;;;5045411;28;20041;-76
2021/08/10 02:52:11;;;;;;;5.50;3.15;;;13.60;99.90;;;;;;5044955;28;20403;-77
2021/08/10 02:54:37;;;;;;;9.85;3.55;;;13.60;99.90;;;;;;5044956;28;20029;-76
2021/08/10 02:57:09;;;;;;;6.63;3.28;;;13.50;99.90;;;;;;5045007;28;20033;-76
2021/08/10 03:00:03;;;;;;;9.15;4.38;;;13.50;99.90;;;;;;5045011;28;20029;-78
2021/08/10 03:02:34;;;;;;;7.57;3.83;;;13.60;99.90;;;;;;5038878;28;20043;-76
2021/08/10 03:05:11;;;;;;;7.90;3.90;;;13.50;99.90;;;;;;5045029;28;20131;-77
2021/08/10 03:07:40;;;;;;;10.05;3.65;;;13.50;99.90;;;;;;5044641;28;20034;-76
2021/08/10 03:10:07;;;;;;;7.20;3.30;;;13.50;99.90;;;;;;5043483;28;20513;-76
2021/08/10 03:12:37;;;;;;;11.43;5.32;;;13.60;99.90;;;;;;5044777;28;20036;-77
2021/08/10 03:15:03;;;;;;;7.05;3.83;;;13.60;99.90;;;;;;5044925;28;20021;-78
2021/08/10 03:17:35;;;;;;;8.38;4.00;;;13.60;99.90;;;;;;5042894;28;20071;-78
2021/08/10 03:20:03;;;;;;;6.78;3.50;;;13.60;99.90;;;;;;5044742;28;20037;-78
2021/08/10 03:22:31;;;;;;;8.07;3.53;;;13.60;99.90;;;;;;5043160;28;20029;-77
2021/08/10 03:24:58;;;;;;;8.43;4.03;;;13.50;99.90;;;;;;5043216;28;20083;-77
2021/08/10 03:27:25;;;;;;;9.65;3.45;;;13.60;99.90;;;;;;5044160;28;20067;-77
2021/08/10 03:29:53;;;;;;;7.95;4.05;;;13.50;99.90;;;;;;5044624;28;20029;-80
2021/08/10 03:32:20;;;;;;;13.90;3.35;;;13.50;99.90;;;;;;5043271;28;20033;-79
2021/08/10 03:34:46;;;;;;;10.02;3.72;;;13.50;99.90;;;;;;5044700;28;20030;-76
2021/08/10 03:37:17;;;;;;;5.85;3.08;;;13.50;99.90;;;;;;5044665;28;20104;-77
2021/08/10 03:39:44;;;;;;;6.68;3.65;;;13.50;99.90;;;;;;5044670;28;20036;-79
2021/08/10 03:42:10;;;;;;;7.03;3.85;;;13.50;99.90;;;;;;5043257;28;20041;-75
2021/08/10 03:44:41;;;;;;;7.22;3.90;;;13.50;99.90;;;;;;5044548;28;20018;-78
2021/08/10 03:47:12;;;;;;;10.23;3.55;;;13.50;99.90;;;;;;5044529;28;20040;-76
2021/08/10 03:49:39;;;;;;;11.20;3.65;;;13.40;99.90;;;;;;5043222;28;20036;-78
2021/08/10 03:52:05;;;;;;;8.38;3.95;;;13.40;99.90;;;;;;5043053;28;20118;-78
2021/08/10 03:54:31;;;;;;;11.07;3.72;;;13.40;99.90;;;;;;5042996;28;20116;-76
2021/08/10 03:56:58;;;;;;;8.90;3.03;;;13.40;99.90;;;;;;5044381;28;20025;-76
2021/08/10 03:59:24;;;;;;;6.97;3.97;;;13.40;99.90;;;;;;5044286;28;20053;-76
2021/08/10 04:01:53;;;;;;;7.85;3.88;;;13.50;99.90;;;;;;5043161;28;20049;-77
2021/08/10 04:04:20;;;;;;;4.65;3.00;;;13.50;99.90;;;;;;5044439;28;20017;-76
2021/08/10 04:06:46;;;;;;;9.40;4.05;;;13.50;99.90;;;;;;5044410;28;20026;-76
2021/08/10 04:09:12;;;;;;;10.27;4.07;;;13.40;99.90;;;;;;5042936;28;20044;-78
2021/08/10 04:11:39;;;;;;;8.38;4.38;;;13.50;99.90;;;;;;5042873;28;20390;-76
2021/08/10 04:14:07;;;;;;;7.15;3.83;;;13.50;99.90;;;;;;5042721;28;20095;-76
2021/08/10 04:16:48;;;;;;;8.10;4.00;;;13.50;99.90;;;;;;5042443;28;20053;-80
2021/08/10 04:19:14;;;;;;;6.80;3.80;;;13.50;99.90;;;;;;5044364;28;20075;-78
2021/08/10 04:21:42;;;;;;;13.25;4.13;;;13.40;99.90;;;;;;5044233;28;20498;-76
2021/08/10 04:24:08;;;;;;;7.82;4.10;;;13.50;99.90;;;;;;5042761;28;20052;-77
2021/08/10 04:26:36;;;;;;;13.15;4.47;;;13.50;99.90;;;;;;5042934;28;20029;-76
2021/08/10 04:29:02;;;;;;;8.30;4.03;;;13.60;99.90;;;;;;5042766;28;20029;-80
2021/08/10 04:31:27;;;;;;;7.32;3.90;;;13.60;99.90;;;;;;5042847;28;20057;-78
2021/08/10 04:33:53;;;;;;;5.63;3.55;;;13.60;99.90;;;;;;5042688;28;20091;-77
2021/08/10 04:36:19;;;;;;;6.32;3.50;;;13.60;99.90;;;;;;5044199;28;20076;-79
2021/08/10 04:38:45;;;;;;;9.45;4.53;;;13.60;99.90;;;;;;5042508;28;20414;-78
2021/08/10 04:41:10;;;;;;;7.25;3.92;;;13.60;99.90;;;;;;5045458;28;20171;-76
2021/08/10 04:43:36;;;;;;;8.23;4.30;;;13.60;99.90;;;;;;5046245;28;20429;-76
2021/08/10 04:46:02;;;;;;;17.10;5.20;;;13.60;99.90;;;;;;5047576;28;20052;-78
2021/08/10 04:48:27;;;;;;;8.05;4.07;;;13.60;99.90;;;;;;5045828;28;20053;-77
2021/08/10 04:50:53;;;;;;;8.98;4.25;;;13.70;99.90;;;;;;5046132;28;20025;-79
2021/08/10 04:53:19;;;;;;;8.13;4.15;;;13.70;99.90;;;;;;5045867;28;20037;-78
2021/08/10 04:55:44;;;;;;;12.35;4.07;;;13.80;99.90;;;;;;5047334;28;20163;-78
2021/08/10 04:58:10;;;;;;;8.48;4.32;;;13.70;99.90;;;;;;5045579;28;20593;-77
2021/08/10 05:00:36;;;;;;;7.68;4.47;;;13.60;99.90;;;;;;5044549;28;20036;-78
2021/08/10 05:03:01;;;;;;;5.90;3.78;;;13.70;99.90;;;;;;5047051;28;20033;-74
2021/08/10 05:05:27;;;;;;;10.70;4.85;;;13.70;99.90;;;;;;5045777;28;20557;-76
2021/08/10 05:07:52;;;;;;;7.80;4.03;;;13.70;99.90;;;;;;5045379;28;20026;-76
2021/08/10 05:10:18;;;;;;;5.93;3.50;;;13.70;99.90;;;;;;5049580;28;20078;-79
2021/08/10 05:12:44;;;;;;;11.35;4.20;;;13.70;99.90;;;;;;5055054;28;20044;-80
2021/08/10 05:15:10;;;;;;;7.10;3.65;;;13.70;99.90;;;;;;5047129;28;20033;-78
2021/08/10 05:17:35;;;;;;;9.50;4.60;;;13.70;99.90;;;;;;5045180;28;20037;-77
2021/08/10 05:20:01;;;;;;;10.05;3.28;;;13.70;99.90;;;;;;5045411;28;20041;-79
2021/08/10 05:22:27;;;;;;;19.33;3.80;;;13.70;99.90;;;;;;5062259;28;20036;-82
2021/08/10 05:24:53;;;;;;;8.75;4.65;;;13.70;99.90;;;;;;5046714;28;20025;-82
2021/08/10 05:27:19;;;;;;;9.60;3.85;;;13.80;99.90;;;;;;5049359;28;20035;-80
2021/08/10 05:29:45;;;;;;;9.98;4.63;;;13.80;99.90;;;;;;5048466;28;20101;-80
2021/08/10 05:32:11;;;;;;;7.15;3.20;;;13.80;99.90;;;;;;5065089;28;20024;-82
2021/08/10 05:34:38;;;;;;;8.20;4.53;;;13.80;99.90;;;;;;5065222;28;20504;-79
2021/08/10 05:37:04;;;;;;;7.43;3.72;;;13.70;99.90;;;;;;5066559;28;20024;-81
2021/08/10 05:39:30;;;;;;;5.43;3.55;;;13.80;99.90;;;;;;5071158;28;20469;-81
2021/08/10 05:41:56;;;;;;;7.15;4.03;;;13.90;99.90;;;;;;5061101;28;20043;-81
2021/08/10 05:44:21;;;;;;;7.90;3.90;;;13.90;99.90;;;;;;5046814;28;20029;-82
2021/08/10 05:46:47;;;;;;;16.70;5.07;;;13.90;99.90;;;;;;5044590;28;20033;-83
2021/08/10 05:49:13;;;;;;;9.20;4.75;;;13.90;99.90;;;;;;5064192;28;20033;-83
2021/08/10 05:51:39;;;;;;;9.20;4.65;;;13.90;99.90;;;;;;5064145;28;20143;-78
2021/08/10 05:54:07;;;;;;;12.00;4.32;;;14.00;99.90;;;;;;5064910;28;20114;-76
2021/08/10 05:56:33;;;;;;;9.00;4.13;;;14.00;99.90;;;;;;5065680;28;20048;-78
2021/08/10 05:58:58;;;;;;;11.35;5.13;;;14.00;99.90;;;;;;5064838;28;20465;-81
2021/08/10 06:01:24;;;;;;;5.63;3.95;;;14.00;99.90;;;;;;5064384;28;20025;-76
2021/08/10 06:03:59;;;;;;;13.60;4.55;;;14.00;99.90;;;;;;5064910;28;20021;-82
2021/08/10 06:06:24;;;;;;;8.80;3.95;;;14.10;99.90;;;;;;5063164;28;20116;-80
2021/08/10 06:08:52;;;;;;;13.07;5.82;;;14.10;99.90;;;;;;5063200;28;20436;-81
2021/08/10 06:11:18;;;;;;;12.95;4.88;;;14.10;99.90;;;;;;5064760;28;20450;-83
2021/08/10 06:13:44;;;;;;;7.47;4.40;;;14.10;99.90;;;;;;5064344;28;20052;-80
2021/08/10 06:16:10;;;;;;;8.18;4.05;;;14.20;99.90;;;;;;5064175;28;20022;-76
2021/08/10 06:18:35;;;;;;;9.55;5.63;;;14.20;99.90;;;;;;5065159;28;20100;-76
2021/08/10 06:21:01;;;;;;;9.80;5.40;;;14.30;99.90;;;;;;5052095;28;20114;-79
2021/08/10 06:23:26;;;;;;;15.50;5.25;;;14.30;99.90;;;;;;5045215;28;20100;-79
2021/08/10 06:25:52;;;;;;;12.15;5.60;;;14.40;99.90;;;;;;5045185;28;20026;-83
2021/08/10 06:28:18;;;;;;;22.88;5.93;;;14.40;99.90;;;;;;5044276;28;20056;-76
2021/08/10 06:30:43;;;;;;;16.40;5.65;;;14.50;99.90;;;;;;5044388;28;20073;-77
2021/08/10 06:33:09;;;;;;;11.18;5.47;;;14.60;99.90;;;;;;5059936;28;20037;-75
2021/08/10 06:35:35;;;;;;;13.50;5.93;;;14.70;99.90;;;;;;5042912;28;20049;-76
2021/08/10 06:38:01;;;;;;;10.43;5.47;;;14.80;99.90;;;;;;5043127;28;20036;-83
2021/08/10 06:40:26;;;;;;;15.68;6.35;;;14.90;99.90;;;;;;5043652;28;20071;-76
2021/08/10 06:42:52;;;;;;;13.32;5.78;;;14.90;99.90;;;;;;5044010;28;20032;-76
2021/08/10 06:45:18;;;;;;;11.82;5.65;;;14.90;99.90;;;;;;5045805;28;20058;-81
2021/08/10 06:47:43;;;;;;;10.05;5.25;;;14.90;99.90;;;;;;5044066;28;20021;-80
2021/08/10 06:50:10;;;;;;;16.25;5.68;;;14.90;99.90;;;;;;5063110;28;20022;-81
2021/08/10 06:52:35;;;;;;;15.35;5.32;;;15.00;99.90;;;;;;5043944;28;20033;-78
2021/08/10 06:55:01;;;;;;;14.57;6.00;;;14.90;99.90;;;;;;5060464;28;20068;-84
2021/08/10 06:57:26;;;;;;;14.75;6.45;;;14.90;99.90;;;;;;5044185;28;20048;-82
2021/08/10 06:59:52;;;;;;;18.58;8.02;;;15.00;99.90;;;;;;5060745;28;20116;-81
2021/08/10 07:02:17;;;;;;;16.38;6.38;;;15.00;99.90;;;;;;5043904;28;20030;-78
2021/08/10 07:04:43;;;;;;;18.20;6.10;;;15.00;99.90;;;;;;5044494;28;20033;-84
2021/08/10 07:07:08;;;;;;;25.20;7.80;;;15.10;99.90;;;;;;5045373;28;20095;-77
2021/08/10 07:09:34;;;;;;;10.40;5.53;;;15.10;99.90;;;;;;5044592;28;20033;-82
2021/08/10 07:12:00;;;;;;;12.05;5.82;;;15.20;99.90;;;;;;5044827;28;20036;-82
2021/08/10 07:14:26;;;;;;;21.80;6.22;;;15.40;99.90;;;;;;5044474;28;20049;-83
2021/08/10 07:16:51;;;;;;;19.45;7.57;;;15.40;99.90;;;;;;5043125;28;20050;-81
2021/08/10 07:19:17;;;;;;;12.15;6.15;;;15.50;99.90;;;;;;5059761;28;20033;-77
2021/08/10 07:21:43;;;;;;;15.00;6.57;;;15.60;99.90;;;;;;5059748;28;20040;-80
2021/08/10 07:24:09;;;;;;;14.60;7.57;;;15.70;99.90;;;;;;5060020;28;20033;-76
2021/08/10 07:26:35;;;;;;;17.33;6.72;;;15.70;99.90;;;;;;5060757;28;20048;-79
2021/08/10 07:29:02;;;;;;;18.45;6.88;;;15.90;99.90;;;;;;5058768;28;20041;-77
2021/08/10 07:31:27;;;;;;;11.02;6.22;;;16.00;99.90;;;;;;5042947;28;20018;-82
2021/08/10 07:33:54;;;;;;;11.05;5.95;;;16.00;99.90;;;;;;5059746;28;20040;-77
2021/08/10 07:36:19;;;;;;;13.18;6.65;;;16.10;99.90;;;;;;5044337;28;20029;-76
2021/08/10 07:38:46;;;;;;;15.05;7.13;;;16.10;99.90;;;;;;5044770;28;20032;-79
2021/08/10 07:41:12;;;;;;;11.25;6.32;;;16.00;99.90;;;;;;5044159;28;20029;-80
2021/08/10 07:43:46;;;;;;;15.13;5.88;;;16.10;99.90;;;;;;5044638;28;20033;-81
2021/08/10 07:46:12;;;;;;;14.82;7.07;;;16.10;99.90;;;;;;5059717;28;20614;-80
2021/08/10 07:48:38;;;;;;;19.30;5.72;;;16.00;99.90;;;;;;5058421;28;20021;-80
2021/08/10 07:51:03;;;;;;;13.35;5.90;;;16.00;99.90;;;;;;5044478;28;20021;-74
2021/08/10 07:53:29;;;;;;;8.13;5.25;;;16.00;99.90;;;;;;5044353;28;20037;-79
2021/08/10 07:55:55;;;;;;;14.43;5.63;;;16.20;99.90;;;;;;5044952;28;20055;-80
2021/08/10 07:58:23;;;;;;;16.17;5.47;;;16.20;99.90;;;;;;5059657;28;20057;-79
2021/08/10 08:00:48;;;;;;;12.05;5.95;;;16.40;99.90;;;;;;5042444;28;20029;-78
2021/08/10 08:03:15;;;;;;;15.75;5.28;;;16.40;99.90;;;;;;5044697;28;20053;-81
2021/08/10 08:05:41;;;;;;;12.25;5.40;;;16.40;99.90;;;;;;5044501;28;20036;-78
2021/08/10 08:08:07;;;;;;;14.15;6.07;;;16.40;99.90;;;;;;5059300;28;20120;-76
2021/08/10 08:10:33;;;;;;;16.75;5.68;;;16.40;99.90;;;;;;5052535;28;20041;-82
2021/08/10 08:12:58;;;;;;;11.43;5.80;;;16.50;99.90;;;;;;5043025;28;20052;-78
2021/08/10 08:15:25;;;;;;;10.88;5.22;;;16.60;99.90;;;;;;5045905;28;20025;-83
2021/08/10 08:17:55;;;;;;;12.57;6.03;;;16.60;99.90;;;;;;5046828;28;20077;-77
2021/08/10 08:20:25;;;;;;;8.60;5.22;;;16.60;99.90;;;;;;5046825;28;20029;-76
2021/08/10 08:22:54;;;;;;;12.25;5.35;;;16.70;99.90;;;;;;5046210;28;20068;-82
2021/08/10 08:25:24;;;;;;;15.18;5.53;;;16.70;99.90;;;;;;5050536;28;20116;-80
2021/08/10 08:27:54;;;;;;;12.70;5.03;;;16.80;99.90;;;;;;5059836;28;20049;-75
2021/08/10 08:30:21;;;;;;;9.65;4.95;;;16.90;99.90;;;;;;5054350;28;20026;-73
2021/08/10 08:32:47;;;;;;;10.05;5.95;;;17.10;99.90;;;;;;5064612;28;20065;-78
2021/08/10 08:35:13;;;;;;;13.98;5.95;;;17.20;99.90;;;;;;5057888;28;20037;-75
2021/08/10 08:37:39;;;;;;;14.27;5.28;;;17.20;99.90;;;;;;5048890;28;20116;-74
2021/08/10 08:40:06;;;;;;;8.32;5.05;;;17.20;99.90;;;;;;5065840;28;20025;-71
2021/08/10 08:42:33;;;;;;;15.00;6.53;;;17.20;99.90;;;;;;5062337;28;20390;-73
2021/08/10 08:44:58;;;;;;;9.85;5.75;;;17.20;99.90;;;;;;5046756;28;20104;-73
2021/08/10 08:47:24;;;;;;;16.70;6.32;;;17.30;99.90;;;;;;5046926;28;20029;-73
2021/08/10 08:49:55;;;;;;;12.75;6.38;;;17.20;99.90;;;;;;5047395;28;20029;-74
2021/08/10 08:52:23;;;;;;;8.18;5.50;;;17.20;99.90;;;;;;5044118;28;20052;-74
2021/08/10 08:54:49;;;;;;;9.30;5.32;;;17.20;99.90;;;;;;5045405;28;20036;-79
2021/08/10 08:57:15;;;;;;;11.55;5.30;;;17.30;99.90;;;;;;5049929;28;20121;-75
2021/08/10 08:59:46;;;;;;;14.63;5.13;;;17.40;99.90;;;;;;5056240;28;20029;-80
2021/08/10 09:02:17;;;;;;;16.55;6.00;;;17.50;99.90;;;;;;5045586;28;20049;-76
2021/08/10 09:04:45;;;;;;;9.98;5.95;;;17.50;99.90;;;;;;5046219;28;20089;-70
2021/08/10 09:07:11;;;;;;;9.10;5.38;;;17.60;99.90;;;;;;5045289;28;20052;-74
2021/08/10 09:09:36;;;;;;;8.02;5.22;;;17.60;99.90;;;;;;5047130;28;20037;-72
2021/08/10 09:12:17;;;;;;;10.75;6.35;;;17.70;99.90;;;;;;5046291;28;20474;-73
2021/08/10 09:14:52;;;;;;;9.48;5.28;;;17.80;99.90;;;;;;5046052;28;20548;-70
2021/08/10 09:17:20;;;;;;;13.65;5.93;;;17.80;99.90;;;;;;5046144;28;20077;-75
2021/08/10 09:19:50;;;;;;;10.40;5.22;;;17.90;99.90;;;;;;5044385;28;20022;-83
2021/08/10 09:22:26;;;;;;;9.43;5.72;;;17.90;99.90;;;;;;5045395;28;20125;-76
2021/08/10 09:24:56;;;;;;;9.55;4.40;;;18.00;99.90;;;;;;5046817;28;20025;-76
2021/08/10 09:27:34;;;;;;;11.50;5.30;;;17.90;99.90;;;;;;5046109;28;20025;-72
2021/08/10 09:30:02;;;;;;;11.60;5.75;;;18.00;99.90;;;;;;5046883;28;20029;-76
2021/08/10 09:32:28;;;;;;;11.23;5.50;;;18.10;99.90;;;;;;5046491;28;20021;-77
2021/08/10 09:35:17;;;;;;;9.35;5.20;;;18.20;99.90;;;;;;5046854;28;20029;-76
2021/08/10 09:38:17;;;;;;;15.27;5.47;;;18.30;99.90;;;;;;5046751;28;20053;-74
2021/08/10 09:40:52;;;;;;;8.63;4.28;;;18.30;99.90;;;;;;5046829;28;20497;-74
2021/08/10 09:43:43;;;;;;;5.50;3.25;;;18.50;99.90;;;;;;5046830;28;20071;-72
2021/08/10 09:46:16;;;;;;;7.03;3.97;;;18.60;99.90;;;;;;5055194;28;20029;-74
2021/08/10 09:48:53;;;;;;;4.90;3.20;;;18.90;99.90;;;;;;5062318;28;20020;-73
2021/08/10 09:51:22;;;;;;;7.63;3.35;;;18.90;99.90;;;;;;5065311;28;20507;-73
2021/08/10 09:54:07;;;;;;;4.05;2.85;;;18.80;99.90;;;;;;5061181;28;20044;-75
2021/08/10 09:56:39;;;;;;;;;;;18.70;99.90;;;;;;5046892;28;20080;-72
2021/08/10 09:59:04;;;;;;;5.63;3.25;;;18.60;99.90;;;;;;5046138;28;19905;-74
2021/08/10 10:01:41;;;;;;;6.85;3.38;;;18.40;99.90;;;;;;5045940;28;20048;-77
2021/08/10 10:04:13;;;;;;;4.57;3.08;;;18.40;99.90;;;;;;5046268;28;20116;-75
2021/08/10 10:06:40;;;;;;;4.95;3.00;;;18.40;99.90;;;;;;5044532;28;20043;-75
2021/08/10 10:09:06;;;;;;;16.25;3.83;;;18.30;99.90;;;;;;5061429;28;20160;-79
2021/08/10 10:11:34;;;;;;;9.63;3.35;;;18.30;99.90;;;;;;5046038;28;20079;-76
2021/08/10 10:14:01;;;;;;;7.75;3.95;;;18.30;99.90;;;;;;5045732;28;20646;-78
2021/08/10 10:16:27;;;;;;;5.55;3.13;;;18.30;99.90;;;;;;5045652;28;20120;-78
2021/08/10 10:18:55;;;;;;;8.40;3.13;;;18.50;99.90;;;;;;5045913;28;20033;-74
2021/08/10 10:21:22;;;;;;;4.80;3.00;;;18.70;99.90;;;;;;5061216;28;20044;-74
2021/08/10 10:23:54;;;;;;;10.68;3.35;;;18.80;99.90;;;;;;5045762;28;20033;-74
2021/08/10 10:26:21;;;;;;;5.18;2.95;;;18.80;99.90;;;;;;5045734;28;20089;-77
2021/08/10 10:28:49;;;;;;;3.83;2.75;;;18.70;99.90;;;;;;5045664;28;20664;-72
2021/08/10 10:31:17;;;;;;;6.30;3.80;;;18.60;99.90;;;;;;5044425;28;20036;-76
2021/08/10 10:33:44;;;;;;;9.85;5.07;;;18.40;99.90;;;;;;5060887;28;20057;-78
2021/08/10 10:36:09;;;;;;;9.95;5.03;;;18.30;99.90;;;;;;5060803;28;20421;-78
2021/08/10 10:38:35;;;;;;;6.82;4.72;;;18.40;99.90;;;;;;5060459;28;20029;-75
2021/08/10 10:41:01;;;;;;;6.40;3.90;;;18.50;99.90;;;;;;5044153;28;20544;-78
2021/08/10 10:43:27;;;;;;;7.13;4.60;;;18.70;99.90;;;;;;5044973;28;20096;-83
2021/08/10 10:45:54;;;;;;;7.25;4.47;;;18.90;99.90;;;;;;5043601;28;20025;-80
2021/08/10 10:48:26;;;;;;;10.07;4.35;;;19.10;99.90;;;;;;5059887;28;20036;-76
2021/08/10 10:51:08;;;;;;;5.72;3.72;;;19.30;99.90;;;;;;5044015;28;20134;-77
2021/08/10 10:53:35;;;;;;;7.95;3.58;;;19.30;99.90;;;;;;5044572;28;20048;-76
2021/08/10 10:56:01;;;;;;;4.75;3.22;;;19.40;99.90;;;;;;5045101;28;20026;-72
2021/08/10 10:58:30;;;;;;;7.63;3.97;;;19.30;99.90;;;;;;5060294;28;20026;-77
2021/08/10 11:01:17;;;;;;;4.15;2.65;;;19.00;99.90;;;;;;5060053;28;20026;-79
2021/08/10 11:04:06;;;;;;;11.43;3.63;;;18.90;99.90;;;;;;5045226;28;20026;-72
2021/08/10 11:06:33;;;;;;;5.70;3.50;;;19.00;99.90;;;;;;5044898;28;20029;-77
2021/08/10 11:08:59;;;;;;;6.93;3.70;;;19.00;99.90;;;;;;5044852;28;20040;-73
2021/08/10 11:11:47;;;;;;;8.07;3.97;;;19.30;99.90;;;;;;5060253;28;20057;-76
2021/08/10 11:14:36;;;;;;;8.07;3.05;;;19.50;99.90;;;;;;5043307;28;20807;-77
2021/08/10 11:17:07;;;;;;;5.18;3.22;;;19.70;99.90;;;;;;5033746;28;20053;-74
2021/08/10 11:19:34;;;;;;;5.32;3.35;;;19.70;99.90;;;;;;5044917;28;20033;-73
2021/08/10 11:22:15;;;;;;;6.25;2.80;;;19.80;99.90;;;;;;5044931;28;20508;-72
2021/08/10 11:24:46;;;;;;;4.72;2.67;;;20.10;99.90;;;;;;5043269;28;20485;-76
2021/08/10 11:27:30;;;;;;;8.00;3.03;;;20.30;99.90;;;;;;5044417;28;20045;-74
2021/08/10 11:29:56;;;;;;;6.22;2.72;;;20.50;99.90;;;;;;5044718;28;20025;-73
2021/08/10 11:32:39;;;;;;;6.72;2.50;;;20.50;99.90;;;;;;5044659;28;20114;-71
2021/08/10 11:35:28;;;;;;;7.88;2.55;;;20.40;99.90;;;;;;5044367;28;20033;-72
2021/08/10 11:38:07;;;;;;;5.78;3.00;;;20.30;99.90;;;;;;5044535;28;20478;-76
2021/08/10 11:40:59;;;;;;;12.77;2.83;;;20.10;99.90;;;;;;5043257;28;20159;-75
2021/08/10 11:43:52;;;;;;;4.18;2.25;;;20.00;99.90;;;;;;5043866;28;20140;-72
2021/08/10 11:46:30;;;;;;;3.47;2.35;;;19.90;99.90;;;;;;5059711;28;20030;-76
2021/08/10 11:49:04;;;;;;;5.82;2.88;;;19.60;99.90;;;;;;5060136;28;20025;-75
2021/08/10 11:51:35;;;;;;;3.70;2.17;;;19.50;99.90;;;;;;5050902;28;20076;-71
2021/08/10 11:54:17;;;;;;;4.55;2.40;;;19.30;99.90;;;;;;5061131;28;20040;-71
2021/08/10 11:56:47;;;;;;;7.05;2.80;;;19.20;99.90;;;;;;5064675;28;20112;-72
2021/08/10 11:59:26;;;;;;;4.90;2.47;;;19.10;99.90;;;;;;5048850;28;20045;-76
2021/08/10 12:01:59;;;;;;;4.43;2.53;;;19.10;99.90;;;;;;5048563;28;20029;-70
2021/08/10 12:04:27;;;;;;;9.25;3.28;;;19.00;99.90;;;;;;5065624;28;20033;-74
2021/08/10 12:06:56;;;;;;;4.07;2.50;;;19.10;99.90;;;;;;5068373;28;20025;-74
2021/08/10 12:09:35;;;;;;;5.18;2.40;;;19.10;99.90;;;;;;5068240;28;20025;-74
2021/08/10 12:12:02;;;;;;;7.85;2.72;;;19.20;99.90;;;;;;5068264;28;20112;-73
2021/08/10 12:14:29;;;;;;;6.10;2.20;;;19.30;99.90;;;;;;5068032;28;20052;-73
2021/08/10 12:17:01;;;;;;;3.58;2.00;;;19.30;99.90;;;;;;5066553;28;20049;-73
2021/08/10 12:19:41;;;;;;;3.20;1.83;;;19.30;99.90;;;;;;5067958;28;20055;-73
2021/08/10 12:22:20;;;;;;;5.68;1.48;;;19.40;99.90;;;;;;5067809;28;20102;-72
2021/08/10 12:24:48;;;;;;;3.88;1.75;;;19.40;99.90;;;;;;5068032;28;20032;-74
2021/08/10 12:27:16;;;;;;;5.50;1.90;;;19.40;99.90;;;;;;5067809;28;20071;-71
2021/08/10 12:29:49;;;;;;;2.30;1.50;;;19.40;99.90;;;;;;5066653;28;20362;-72
2021/08/10 12:32:33;;;;;;;2.90;1.80;;;19.50;99.90;;;;;;5068007;28;20037;-70
2021/08/10 12:35:10;;;;;;;2.85;1.88;;;19.50;99.90;;;;;;5067823;28;20067;-73
2021/08/10 12:37:36;;;;;;;3.92;1.35;;;19.50;99.90;;;;;;5066267;28;20056;-72
2021/08/10 12:40:02;;;;;;;6.40;2.30;;;19.50;99.90;;;;;;5067573;28;20029;-71
2021/08/10 12:42:28;;;;;;;6.15;2.65;;;19.40;99.90;;;;;;5067618;28;20021;-72
2021/08/10 12:44:55;;;;;;;6.72;2.50;;;19.40;99.90;;;;;;5067260;28;20056;-76
2021/08/10 12:47:42;;;;;;;5.05;2.85;;;19.30;99.90;;;;;;5067677;28;20032;-72
2021/08/10 12:50:30;;;;;;;5.00;2.40;;;19.20;99.90;;;;;;5067198;28;20029;-75
2021/08/10 12:52:58;;;;;;;4.38;2.33;;;19.10;99.90;;;;;;5067230;28;20025;-75
2021/08/10 12:55:24;;;;;;;6.03;2.80;;;19.00;99.90;;;;;;5067199;28;20049;-75